Anmoore, West Virginia
Current Conditions -  °F | °C
As of 11:53 PM on Saturday 25 Oct 2014 (Local Time) from KCKB Reporting Station
Clear Clear  
Wind Chill: 60°   Ceiling: Unl
Heat Index: 60°   Visibility: 10mi
Dew Point: 53°   Wind: 14mph
Humidity: 78%   Direction: 250°WSW
Pressure: 29.85"   Gusts: NA
Location:  39.26°N, 80.29°W
Report Text: KCKB 260353Z 25012KT 10SM CLR 16/12 A2985 RMK AO2 SLP099 T01560117
Loading
Personal Weather Stations






























Interactive Weather Map New forecast layout! Learn more

10-Day Weather Forecast

Advertisements
Track Severe Weather on mobile